Time;durP1;ratioP1;P1;durP2;ratioP2;P2;SDS_P1;SDS_P2;PMS_P1;PMS_P2;Temp;Humidity;BMP_temperature;BMP_pressure;BME280_temperature;BME280_humidity;BME280_pressure;Samples;Min_cycle;Max_cycle;Signal;HPM_P1;HPM_P2
2023/05/15 00:01:01;;;;;;;;;;;16.00;87.40;;;16.11;53.28;98284.84;5081435;27;113826;-86
2023/05/15 00:03:27;;;;;;;;;;;16.00;87.50;;;16.10;53.23;98278.47;5088583;27;114118;-86
2023/05/15 00:05:53;;;;;;;;;;;15.90;88.30;;;16.11;53.36;98282.88;5072063;27;123246;-86
2023/05/15 00:08:20;;;;;;;;;;;15.90;87.90;;;16.11;53.54;98282.06;5075005;27;123974;-86
2023/05/15 00:10:49;;;;;;;;;;;15.90;88.10;;;16.09;53.51;98270.47;5070832;27;114382;-86
2023/05/15 00:13:18;;;;;;;;;;;15.90;88.10;;;16.06;53.44;98277.56;5084382;27;113841;-86
2023/05/15 00:15:44;;;;;;;;;;;15.90;88.30;;;16.05;53.61;98267.59;5081436;27;123514;-86
2023/05/15 00:18:13;;;;;;;;;;;15.80;88.30;;;16.01;53.43;98265.91;5083798;27;123845;-85
2023/05/15 00:20:40;;;;;;;;;;;15.80;88.30;;;15.97;53.73;98267.81;5089313;27;114516;-86
2023/05/15 00:23:06;;;;;;;;;;;15.80;88.40;;;15.95;53.89;98270.94;5088491;27;113852;-87
2023/05/15 00:25:33;;;;;;;;;;;15.70;88.50;;;15.93;54.02;98267.69;5085834;27;124463;-86
2023/05/15 00:28:04;;;;;;;;;;;15.70;88.60;;;15.92;54.03;98266.09;5086213;27;123827;-85
2023/05/15 00:30:30;;;;;;;;;;;15.70;88.70;;;15.91;54.00;98270.06;5076139;27;114453;-86
2023/05/15 00:32:56;;;;;;;;;;;15.70;88.80;;;15.91;53.92;98264.50;5075313;27;113669;-86
2023/05/15 00:35:26;;;;;;;;;;;15.70;88.90;;;15.90;53.92;98258.13;5085967;27;124112;-86
2023/05/15 00:37:52;;;;;;;;;;;15.70;89.00;;;15.89;54.00;98259.28;5082047;27;123583;-86
2023/05/15 00:40:21;;;;;;;;;;;15.70;89.10;;;15.86;54.02;98257.22;5085624;27;115613;-86
2023/05/15 00:42:50;;;;;;;;;;;15.60;89.00;;;15.85;54.05;98255.59;5089784;27;114828;-85
2023/05/15 00:45:17;;;;;;;;;;;15.60;89.00;;;15.84;54.01;98250.38;5073102;27;123907;-85
2023/05/15 00:47:43;;;;;;;;;;;15.60;89.20;;;15.83;54.24;98246.78;5074756;27;124122;-86
2023/05/15 00:50:14;;;;;;;;;;;15.60;89.30;;;15.83;54.18;98244.00;5072068;27;114903;-86
2023/05/15 00:52:43;;;;;;;;;;;15.50;89.30;;;15.84;54.31;98248.41;5058602;27;113272;-86
2023/05/15 00:55:09;;;;;;;;;;;15.60;89.50;;;15.84;54.06;98245.59;5090010;27;123961;-86
2023/05/15 00:57:38;;;;;;;;;;;15.60;89.50;;;15.84;54.21;98253.97;5091258;27;123870;-87
2023/05/15 01:00:09;;;;;;;;;;;15.60;89.50;;;15.84;54.27;98253.97;5075363;27;113669;-86
2023/05/15 01:02:37;;;;;;;;;;;15.60;89.60;;;15.83;54.22;98257.94;5090287;27;113888;-86
2023/05/15 01:05:06;;;;;;;;;;;15.60;89.70;;;15.84;54.16;98253.97;5072362;27;124164;-86
2023/05/15 01:07:42;;;;;;;;;;;15.50;89.70;;;15.84;54.47;98253.97;5076817;27;123951;-86
2023/05/15 01:10:13;;;;;;;;;;;15.50;89.80;;;15.84;54.25;98258.72;5093028;27;115674;-86
2023/05/15 01:12:40;;;;;;;;;;;15.50;89.90;;;15.83;54.33;98257.94;5066971;27;113349;-86
2023/05/15 01:15:06;;;;;;;;;;;15.60;90.00;;;15.83;54.33;98260.72;5078081;27;124252;-87
2023/05/15 01:17:41;;;;;;;;;;;15.50;89.90;;;15.83;54.21;98266.28;5093677;27;123577;-86
2023/05/15 01:20:17;;;;;;;;;;;15.60;90.00;;;15.83;54.25;98254.34;5078060;27;113638;-87
2023/05/15 01:22:54;;;;;;;;;;;15.50;90.00;;;15.82;54.56;98261.88;5078980;27;113964;-87
2023/05/15 01:25:52;;;;;;;;;;;15.60;90.00;;;15.78;54.30;98261.00;5079610;27;124195;-87
2023/05/15 01:28:30;;;;;;;;;;;15.50;90.00;;;15.77;54.37;98269.69;5066384;27;125079;-86
2023/05/15 01:31:04;;;;;;;;;;;15.50;89.90;;;15.75;54.20;98256.16;5055048;27;115560;-86
2023/05/15 01:33:37;;;;;;;;;;;15.50;89.90;;;15.75;54.22;98261.72;5089322;27;114817;-87
2023/05/15 01:36:31;;;;;;;;;;;15.50;90.00;;;15.74;54.34;98257.28;5067646;27;124857;-86
2023/05/15 01:39:04;;;;;;;;;;;15.50;90.00;;;15.73;54.49;98258.47;5065888;27;122787;-87
2023/05/15 01:41:30;;;;;;;;;;;15.50;90.00;;;15.72;54.43;98259.66;5068287;27;114635;-87
2023/05/15 01:44:07;;;;;;;;;;;15.50;90.10;;;15.72;54.51;98259.66;5084117;27;113599;-87
2023/05/15 01:46:42;;;;;;;;;;;15.40;90.10;;;15.72;54.61;98267.22;5070439;27;124555;-86
2023/05/15 01:49:13;;;;;;;;;;;15.40;90.10;;;15.67;54.58;98257.09;5082788;27;123896;-87
2023/05/15 01:51:39;;;;;;;;;;;15.40;90.10;;;15.68;54.56;98256.75;5060141;27;114652;-87
2023/05/15 01:54:07;;;;;;;;;;;15.40;90.20;;;15.67;54.74;98265.47;5072306;27;113605;-87
2023/05/15 01:56:40;;;;;;;;;;;15.40;90.20;;;15.65;54.70;98257.44;5057953;27;123150;-87
2023/05/15 01:59:08;;;;;;;;;;;15.40;90.20;;;15.66;54.79;98255.47;5082728;27;123978;-87
2023/05/15 02:01:42;;;;;;;;;;;15.40;90.30;;;15.67;55.06;98265.47;5068071;27;114474;-86
2023/05/15 02:04:19;;;;;;;;;;;15.40;90.30;;;15.65;54.92;98260.22;5072118;27;114385;-87
2023/05/15 02:06:46;;;;;;;;;;;15.40;90.40;;;15.66;55.10;98263.81;5074459;27;123903;-87
2023/05/15 02:09:13;;;;;;;;;;;15.40;90.40;;;15.67;54.88;98262.69;5076086;27;123028;-87
2023/05/15 02:11:41;;;;;;;;;;;15.40;90.50;;;15.67;55.07;98265.47;5071641;27;114250;-87
2023/05/15 02:14:08;;;;;;;;;;;15.40;90.50;;;15.66;55.14;98264.66;5053026;27;113485;-86
2023/05/15 02:16:40;;;;;;;;;;;15.40;90.50;;;15.65;54.99;98267.78;5049810;27;123649;-86
2023/05/15 02:19:07;;;;;;;;;;;15.40;90.50;;;15.64;54.99;98266.19;5077911;27;124746;-87
2023/05/15 02:21:40;;;;;;;;;;;15.30;90.50;;;15.63;55.17;98264.53;5072685;27;114866;-87
2023/05/15 02:24:06;;;;;;;;;;;15.90;90.80;;;15.61;55.20;98266.91;5061685;27;113729;-87
2023/05/15 02:27:01;;;;;;;;;;;15.40;90.60;;;15.59;55.36;98264.47;5090066;27;124012;-87
2023/05/15 02:29:37;;;;;;;;;;;15.30;90.60;;;15.58;55.21;98264.81;5090527;27;123981;-87
2023/05/15 02:32:25;;;;;;;;;;;15.30;90.60;;;15.56;55.33;98265.19;5089790;27;114240;-87
2023/05/15 02:35:03;;;;;;;;;;;15.30;90.70;;;15.55;55.41;98262.75;5089926;27;114817;-86
2023/05/15 02:37:31;;;;;;;;;;;15.30;90.70;;;15.53;55.40;98265.91;5061985;27;124082;-87
2023/05/15 02:40:15;;;;;;;;;;;15.30;90.70;;;15.53;55.58;98268.69;5078257;27;123640;-87
2023/05/15 02:42:42;;;;;;;;;;;15.30;90.70;;;15.51;55.44;98271.03;5056526;27;113481;-86
2023/05/15 02:45:15;;;;;;;;;;;15.20;90.70;;;15.50;55.46;98271.38;5073049;27;113645;-87
2023/05/15 02:47:51;;;;;;;;;;;15.20;90.70;;;15.47;55.43;98270.09;5071072;27;124012;-87
2023/05/15 02:50:20;;;;;;;;;;;15.20;90.70;;;15.46;55.68;98265.72;5089959;27;124399;-87
2023/05/15 02:52:49;;;;;;;;;;;15.20;90.80;;;15.45;55.65;98264.91;5074836;27;114661;-87
2023/05/15 02:55:16;;;;;;;;;;;15.20;90.80;;;15.45;55.68;98270.47;5081008;27;112764;-86
2023/05/15 02:57:42;;;;;;;;;;;15.20;90.90;;;15.46;55.72;98265.72;5088707;27;124333;-87
2023/05/15 03:00:12;;;;;;;;;;;15.20;90.90;;;15.46;55.41;98265.72;5089736;27;124573;-87
2023/05/15 03:02:38;;;;;;;;;;;15.20;90.90;;;15.43;55.46;98260.88;5090701;27;114100;-86
2023/05/15 03:05:05;;;;;;;;;;;15.20;90.80;;;15.37;55.27;98262.31;5072423;27;113723;-87
2023/05/15 03:07:31;;;;;;;;;;;15.10;90.80;;;15.38;55.54;98261.94;5075569;27;124346;-87
2023/05/15 03:10:04;;;;;;;;;;;15.10;90.80;;;15.36;55.42;98255.91;5084364;27;124235;-87
2023/05/15 03:12:30;;;;;;;;;;;15.10;90.80;;;15.35;55.32;98253.50;5088570;27;114815;-87
2023/05/15 03:15:01;;;;;;;;;;;15.10;90.80;;;15.35;55.43;98259.88;5090655;27;114630;-87
2023/05/15 03:17:27;;;;;;;;;;;15.10;90.80;;;15.34;55.60;98255.47;5089404;27;124264;-87
2023/05/15 03:19:56;;;;;;;;;;;15.10;90.90;;;15.36;55.41;98261.47;5082778;27;123910;-87
2023/05/15 03:22:28;;;;;;;;;;;15.10;90.90;;;15.35;55.52;98264.63;5090605;27;114541;-86
2023/05/15 03:24:55;;;;;;;;;;;15.10;90.90;;;15.35;55.68;98257.09;5067471;27;113294;-87
2023/05/15 03:27:21;;;;;;;;;;;15.10;91.00;;;15.34;55.59;98258.25;5072068;27;124139;-87
2023/05/15 03:29:49;;;;;;;;;;;15.00;91.00;;;15.35;55.92;98257.09;5070674;27;124318;-87
2023/05/15 03:32:19;;;;;;;;;;;15.10;91.10;;;15.35;55.68;98256.28;5073445;27;114862;-87
2023/05/15 03:34:45;;;;;;;;;;;15.10;91.10;;;15.36;55.75;98255.09;5086100;27;113746;-86
2023/05/15 03:37:18;;;;;;;;;;;15.10;91.20;;;15.34;55.74;98252.69;5086803;27;124197;-86
2023/05/15 03:39:45;;;;;;;;;;;15.00;91.20;;;15.33;55.88;98251.06;5085011;27;125128;-87
2023/05/15 03:42:11;;;;;;;;;;;15.10;91.20;;;15.35;56.20;98248.72;5088929;27;114479;-86
2023/05/15 03:44:41;;;;;;;;;;;15.10;91.30;;;15.37;56.08;98251.16;5083136;27;113734;-87
2023/05/15 03:47:07;;;;;;;;;;;15.10;91.30;;;15.36;56.04;98247.56;5080706;27;124039;-87
2023/05/15 03:49:34;;;;;;;;;;;15.10;91.40;;;15.37;56.14;98251.97;5073281;27;124358;-87
2023/05/15 03:52:00;;;;;;;;;;;15.10;91.40;;;15.39;56.09;98258.00;5080435;27;115300;-86
2023/05/15 03:54:29;;;;;;;;;;;15.10;91.40;;;15.36;55.86;98255.91;5085174;27;113880;-87
2023/05/15 03:56:58;;;;;;;;;;;15.00;91.30;;;15.35;55.86;98257.09;5085637;27;124414;-87
2023/05/15 03:59:24;;;;;;;;;;;15.00;91.30;;;15.37;56.05;98256.75;5082430;27;124058;-86
2023/05/15 04:01:53;;;;;;;;;;;15.10;91.40;;;15.40;56.06;98254.03;5084360;27;115307;-87
2023/05/15 04:04:22;;;;;;;;;;;15.10;91.40;;;15.41;56.06;98246.50;5082701;27;114465;-86
2023/05/15 04:06:55;;;;;;;;;;;15.10;91.40;;;15.43;56.11;98256.09;5087250;27;122778;-87
2023/05/15 04:09:21;;;;;;;;;;;15.10;91.50;;;15.44;56.11;98252.13;5090247;27;123957;-86
2023/05/15 04:11:48;;;;;;;;;;;15.10;91.50;;;15.46;56.05;98255.38;5072456;27;113693;-87
2023/05/15 04:14:20;;;;;;;;;;;15.10;91.50;;;15.49;56.00;98250.28;5079850;27;113732;-87
2023/05/15 04:16:46;;;;;;;;;;;15.20;91.50;;;15.51;56.16;98256.28;5078604;27;124894;-87
2023/05/15 04:19:12;;;;;;;;;;;15.20;91.50;;;15.53;56.15;98253.94;5082051;27;124419;-86
2023/05/15 04:21:42;;;;;;;;;;;15.20;91.50;;;15.56;55.98;98264.38;5085429;27;114304;-87
2023/05/15 04:24:13;;;;;;;;;;;15.20;91.60;;;15.54;56.08;98258.34;5065395;27;113575;-86
2023/05/15 04:26:42;;;;;;;;;;;15.20;91.60;;;15.54;56.03;98255.56;5082235;27;125049;-87
2023/05/15 04:29:08;;;;;;;;;;;15.20;91.50;;;15.56;56.04;98253.25;5065771;27;123447;-87
2023/05/15 04:31:35;;;;;;;;;;;15.20;91.50;;;15.56;55.91;98250.47;5071558;27;114437;-87
2023/05/15 04:34:02;;;;;;;;;;;15.20;91.50;;;15.55;55.97;98257.97;5076994;27;113607;-86
2023/05/15 04:36:29;;;;;;;;;;;15.20;91.50;;;15.55;56.11;98246.03;5075026;27;124841;-86
2023/05/15 04:38:57;;;;;;;;;;;15.20;91.50;;;15.55;55.99;98251.63;5067820;27;123846;-86
2023/05/15 04:41:24;;;;;;;;;;;15.20;91.50;;;15.54;56.07;98250.00;5085029;27;113844;-87
2023/05/15 04:43:50;;;;;;;;;;;15.20;91.60;;;15.53;56.19;98251.16;5070219;27;113398;-87
2023/05/15 04:46:16;;;;;;;;;;;15.20;91.60;;;15.54;56.49;98250.00;5085807;27;123561;-87
2023/05/15 04:48:45;;;;;;;;;;;15.20;91.70;;;15.55;56.39;98257.19;5075294;27;123845;-85
2023/05/15 04:51:11;;;;;;;;;;;15.20;91.70;;;15.53;56.55;98259.50;5089049;27;115379;-85
2023/05/15 04:53:38;;;;;;;;;;;15.20;91.70;;;15.52;56.72;98255.91;5085416;27;114568;-85
2023/05/15 04:56:04;;;;;;;;;;;15.20;91.80;;;15.49;56.78;98258.63;5070600;27;124146;-85
2023/05/15 04:58:36;;;;;;;;;;;15.20;91.80;;;15.48;56.62;98268.97;5074879;27;124164;-85
2023/05/15 05:01:05;;;;;;;;;;;15.20;91.90;;;15.46;56.88;98260.94;5072133;27;113309;-86
2023/05/15 05:03:36;;;;;;;;;;;15.20;91.90;;;15.48;56.79;98270.94;5083176;27;113581;-86
2023/05/15 05:06:02;;;;;;;;;;;15.20;92.00;;;15.50;57.14;98260.22;5089697;27;123816;-86
2023/05/15 05:08:33;;;;;;;;;;;15.20;92.00;;;15.56;57.16;98270.75;5066530;27;122738;-87
2023/05/15 05:10:59;;;;;;;;;;;15.20;92.10;;;15.59;57.04;98274.81;5073303;27;114614;-84
2023/05/15 05:13:25;;;;;;;;;;;15.20;92.20;;;15.61;57.05;98261.34;5082745;27;113700;-86
2023/05/15 05:15:57;;;;;;;;;;;15.20;92.20;;;15.63;56.95;98265.34;5086496;27;124564;-86
2023/05/15 05:18:23;;;;;;;;;;;15.30;92.30;;;15.62;56.93;98268.50;5076378;27;123913;-85
2023/05/15 05:20:49;;;;;;;;;;;15.30;92.30;;;15.61;57.16;98273.28;5078130;27;114477;-86
2023/05/15 05:23:17;;;;;;;;;;;15.30;92.30;;;15.64;57.13;98274.53;5082563;27;114045;-86
2023/05/15 05:25:48;;;;;;;;;;;15.30;92.30;;;15.66;57.11;98275.78;5070984;27;124176;-86
2023/05/15 05:28:15;;;;;;;;;;;15.30;92.40;;;15.71;57.03;98280.28;5068719;27;124269;-86
2023/05/15 05:30:50;;;;;;;;;;;15.30;92.40;;;15.76;56.87;98279.22;5090197;27;114765;-86
2023/05/15 05:33:16;;;;;;;;;;;15.40;92.70;;;15.78;57.00;98280.47;5074289;27;113512;-86
2023/05/15 05:35:45;;;;;;;;;;;15.40;92.40;;;15.84;56.96;98278.25;5063234;27;124523;-86
2023/05/15 05:38:12;;;;;;;;;;;15.50;92.50;;;15.85;56.89;98280.69;5090762;27;124399;-85
2023/05/15 05:40:38;;;;;;;;;;;15.50;92.50;;;15.87;56.94;98280.28;5089705;27;115332;-85
2023/05/15 05:43:13;;;;;;;;;;;15.50;92.50;;;15.94;57.04;98276.91;5067847;27;114051;-84
2023/05/15 05:45:39;;;;;;;;;;;15.50;92.50;;;16.01;56.81;98277.88;5088348;27;124930;-85
2023/05/15 05:48:08;;;;;;;;;;;15.60;92.60;;;16.08;56.78;98271.66;5087519;27;124071;-86
2023/05/15 05:50:35;;;;;;;;;;;15.60;92.50;;;16.17;56.48;98272.25;5076370;27;114106;-84
2023/05/15 05:53:01;;;;;;;;;;;15.70;92.50;;;16.22;56.31;98274.75;5075558;27;113542;-86
2023/05/15 05:55:27;;;;;;;;;;;15.80;92.50;;;16.23;56.43;98279.19;5075948;27;125334;-85
2023/05/15 05:57:57;;;;;;;;;;;15.80;92.40;;;16.25;56.26;98273.22;5051126;27;124223;-84
2023/05/15 06:00:23;;;;;;;;;;;15.80;92.60;;;16.28;56.20;98283.66;5059118;27;114928;-83
2023/05/15 06:02:58;;;;;;;;;;;15.90;92.30;;;16.32;56.20;98284.56;5060585;27;112939;-84
2023/05/15 06:05:25;;;;;;;;;;;15.90;92.30;;;16.38;56.12;98283.09;5065238;27;124708;-84
2023/05/15 06:07:56;;;;;;;;;;;15.90;92.20;;;16.44;55.98;98283.63;5063294;27;124642;-89
2023/05/15 06:10:26;;;;;;;;;;;16.00;92.30;;;16.48;55.97;98278.94;5089236;27;114393;-94
2023/05/15 06:12:56;;;;;;;;;;;16.00;92.20;;;16.53;55.76;98279.47;5068747;27;114261;-89
2023/05/15 06:15:23;;;;;;;;;;;16.10;92.20;;;16.57;55.83;98282.31;5081472;27;124548;-88
2023/05/15 06:17:49;;;;;;;;;;;16.10;92.20;;;16.63;55.48;98283.66;5085727;27;124014;-88
2023/05/15 06:20:16;;;;;;;;;;;16.20;92.10;;;16.64;55.24;98285.28;5090075;27;114161;-89
2023/05/15 06:22:43;;;;;;;;;;;16.20;92.10;;;16.69;55.46;98282.19;5086705;27;113774;-90
2023/05/15 06:25:13;;;;;;;;;;;16.20;92.00;;;16.74;55.32;98292.25;5071778;27;124290;-89
2023/05/15 06:27:42;;;;;;;;;;;16.30;92.00;;;16.77;55.19;98281.19;5087454;27;123096;-88
2023/05/15 06:30:09;;;;;;;;;;;16.30;92.00;;;16.78;55.09;98274.44;5078690;27;115782;-88
2023/05/15 06:32:35;;;;;;;;;;;16.30;91.90;;;16.83;55.09;98270.56;5091487;27;114941;-88
2023/05/15 06:35:02;;;;;;;;;;;16.40;91.90;;;16.89;54.91;98279.44;5070425;27;124109;-87
2023/05/15 06:37:29;;;;;;;;;;;16.40;91.90;;;16.96;54.78;98279.59;5040066;27;123896;-89
2023/05/15 06:39:55;;;;;;;;;;;16.50;91.90;;;17.02;54.96;98277.31;5086801;27;113681;-88
2023/05/15 06:42:21;;;;;;;;;;;16.60;91.90;;;17.09;54.69;98291.41;5071158;27;113777;-88
2023/05/15 06:44:50;;;;;;;;;;;16.60;91.90;;;17.15;54.67;98287.94;5074901;27;124083;-87
2023/05/15 06:47:19;;;;;;;;;;;16.70;91.80;;;17.18;54.55;98290.00;5069630;27;123824;-87
2023/05/15 06:49:45;;;;;;;;;;;16.70;91.70;;;17.21;54.40;98292.03;5089201;27;114848;-87
2023/05/15 06:52:12;;;;;;;;;;;16.80;91.70;;;17.26;54.21;98281.78;5081342;27;112923;-89
2023/05/15 06:54:40;;;;;;;;;;;16.80;91.60;;;17.29;54.11;98281.03;5059035;27;124604;-88
2023/05/15 06:57:06;;;;;;;;;;;16.80;91.50;;;17.31;54.07;98284.25;5087678;27;123715;-89
2023/05/15 06:59:34;;;;;;;;;;;16.90;91.40;;;17.37;53.85;98279.97;5073330;27;113702;-86
2023/05/15 07:02:01;;;;;;;;;;;17.00;91.40;;;17.39;53.70;98283.22;5074775;27;112546;-85
2023/05/15 07:04:29;;;;;;;;;;;17.00;91.30;;;17.47;53.39;98282.16;5072355;27;124798;-87
2023/05/15 07:06:56;;;;;;;;;;;17.10;91.20;;;17.51;53.11;98277.44;5087269;27;123956;-87
2023/05/15 07:09:25;;;;;;;;;;;17.10;91.00;;;17.58;53.07;98283.16;5082644;27;114466;-86
2023/05/15 07:11:52;;;;;;;;;;;17.10;91.00;;;17.65;53.08;98272.13;5062978;27;115129;-88
2023/05/15 07:14:18;;;;;;;;;;;17.20;91.00;;;17.73;52.72;98272.22;5060676;27;124610;-85
2023/05/15 07:16:46;;;;;;;;;;;17.30;91.00;;;17.81;52.71;98279.56;5053298;27;123292;-84
2023/05/15 07:19:12;;;;;;;;;;;17.30;90.90;;;17.88;52.44;98276.91;5049943;27;114963;-86
2023/05/15 07:21:41;;;;;;;;;;;17.40;90.80;;;17.95;52.22;98285.44;5067128;27;114476;-85
2023/05/15 07:24:07;;;;;;;;;;;17.50;90.80;;;18.02;52.09;98274.34;5078586;27;124507;-83
2023/05/15 07:26:36;;;;;;;;;;;17.50;90.70;;;18.11;51.87;98285.28;5072428;27;123950;-86
2023/05/15 07:29:02;;;;;;;;;;;17.60;90.60;;;18.18;51.37;98277.00;5067111;27;114421;-84
2023/05/15 07:31:30;;;;;;;;;;;17.60;90.40;;;18.23;51.05;98273.88;5060861;27;113815;-85
2023/05/15 07:33:56;;;;;;;;;;;17.70;90.20;;;18.26;50.61;98277.91;5069412;27;124357;-86
2023/05/15 07:36:22;;;;;;;;;;;17.80;89.80;;;18.30;50.42;98285.19;5083532;27;124135;-85
2023/05/15 07:38:48;;;;;;;;;;;17.80;89.50;;;18.36;50.23;98277.25;5070269;27;114308;-85
2023/05/15 07:41:15;;;;;;;;;;;17.90;89.30;;;18.38;50.30;98279.69;5071073;27;112867;-84
2023/05/15 07:43:41;;;;;;;;;;;17.90;89.20;;;18.43;50.47;98282.97;5046898;27;123484;-87
2023/05/15 07:46:07;;;;;;;;;;;18.00;89.40;;;18.47;50.18;98283.00;5069229;27;124698;-84
2023/05/15 07:48:33;;;;;;;;;;;18.00;88.90;;;18.51;49.79;98278.25;5077427;27;114388;-87
2023/05/15 07:51:00;;;;;;;;;;;18.10;88.60;;;18.53;49.66;98282.28;5067982;27;112520;-85
2023/05/15 07:53:26;;;;;;;;;;;18.10;88.60;;;18.59;49.88;98279.16;5084264;27;124646;-85
2023/05/15 07:55:55;;;;;;;;;;;18.10;88.60;;;18.61;49.69;98283.19;5058056;27;124631;-84
2023/05/15 07:58:22;;;;;;;;;;;18.20;88.70;;;18.64;49.72;98276.84;5060777;27;114558;-83
2023/05/15 08:00:48;;;;;;;;;;;18.20;88.60;;;18.70;49.60;98280.16;5071000;27;113720;-86
2023/05/15 08:03:14;;;;;;;;;;;18.20;88.20;;;18.74;49.35;98278.19;5081026;27;124946;-86
2023/05/15 08:05:40;;;;;;;;;;;18.30;88.20;;;18.77;49.32;98269.84;5082796;27;124211;-84
2023/05/15 08:08:07;;;;;;;;;;;18.30;88.00;;;18.69;49.17;98268.13;5088782;27;115551;-85
2023/05/15 08:10:34;;;;;;;;;;;18.30;87.50;;;18.67;49.36;98273.31;5081141;27;114688;-86
2023/05/15 08:13:00;;;;;;;;;;;18.30;87.70;;;18.68;49.55;98265.72;5084728;27;124662;-86
2023/05/15 08:15:28;;;;;;;;;;;18.30;87.80;;;18.72;49.47;98267.34;5068066;27;123600;-86
2023/05/15 08:17:54;;;;;;;;;;;18.40;87.90;;;18.73;49.03;98262.59;5074921;27;114505;-85
2023/05/15 08:20:22;;;;;;;;;;;18.40;87.40;;;18.69;48.89;98268.13;5077468;27;112792;-84
2023/05/15 08:22:51;;;;;;;;;;;18.30;87.20;;;18.69;49.09;98258.94;5056273;27;123274;-83
2023/05/15 08:25:17;;;;;;;;;;;18.40;87.10;;;18.67;48.85;98262.13;5062939;27;124703;-86
2023/05/15 08:27:44;;;;;;;;;;;18.30;86.50;;;18.70;48.63;98263.34;5090335;27;114663;-85
2023/05/15 08:30:10;;;;;;;;;;;18.40;86.40;;;18.74;48.29;98261.38;5066279;27;113640;-84
2023/05/15 08:32:37;;;;;;;;;;;18.40;85.90;;;18.77;47.87;98257.84;5057838;27;124013;-85
2023/05/15 08:35:04;;;;;;;;;;;18.40;85.60;;;18.83;47.83;98256.31;5057963;27;123598;-85
2023/05/15 08:37:32;;;;;;;;;;;18.50;85.50;;;18.89;47.73;98259.63;5086724;27;114973;-83
2023/05/15 08:39:58;;;;;;;;;;;18.50;85.30;;;18.96;47.87;98248.50;5091133;27;114933;-84
2023/05/15 08:42:32;;;;;;;;;;;18.50;85.50;;;18.99;47.97;98250.53;5066046;27;123949;-84
2023/05/15 08:45:04;;;;;;;;;;;18.60;85.60;;;19.01;48.22;98259.34;5067873;27;124085;-83
2023/05/15 08:47:32;;;;;;;;;;;18.60;85.90;;;19.05;48.29;98246.22;5045989;27;113559;-82
2023/05/15 08:49:59;;;;;;;;;;;18.70;86.30;;;19.12;47.68;98248.28;5065500;27;114473;-85
2023/05/15 08:52:26;;;;;;;;;;;18.70;85.60;;;19.14;47.14;98243.09;5064865;27;122821;-87
2023/05/15 08:54:56;;;;;;;;;;;18.70;84.80;;;19.16;47.04;98251.94;5063049;27;123926;-86
2023/05/15 08:57:22;;;;;;;;;;;18.70;84.70;;;19.15;46.73;98245.50;5057461;27;114858;-86
2023/05/15 08:59:50;;;;;;;;;;;18.70;84.20;;;19.17;46.59;98240.34;5072836;27;114623;-87
2023/05/15 09:02:17;;;;;;;;;;;18.80;84.10;;;19.20;46.41;98241.56;5080303;27;124113;-85
2023/05/15 09:04:43;;;;;;;;;;;18.80;83.70;;;19.18;46.65;98238.34;5075416;27;123940;-86
2023/05/15 09:07:10;;;;;;;;;;;18.80;83.60;;;19.22;47.28;98242.00;5086241;27;113902;-84
2023/05/15 09:09:38;;;;;;;;;;;18.80;84.10;;;19.27;46.89;98236.03;5087777;27;113696;-86
2023/05/15 09:12:06;;;;;;;;;;;18.80;84.40;;;19.32;46.80;98227.28;5071305;27;124165;-85
2023/05/15 09:14:32;;;;;;;;;;;18.90;84.20;;;19.29;46.24;98232.84;5071842;27;123527;-84
2023/05/15 09:16:59;;;;;;;;;;;18.80;83.50;;;19.26;46.51;98237.22;5083021;27;115969;-86
2023/05/15 09:19:25;;;;;;;;;;;18.90;83.60;;;19.24;46.64;98234.03;5058388;27;112534;-85
2023/05/15 09:21:52;;;;;;;;;;;18.90;84.30;;;19.23;46.96;98242.78;5087654;27;124054;-84
2023/05/15 09:24:23;;;;;;;;;;;18.90;83.90;;;19.14;47.49;98237.50;5068252;27;123841;-85
2023/05/15 09:27:05;;;;;;;;;;;18.80;84.20;;;19.05;47.65;98243.41;5063876;27;114471;-85
2023/05/15 09:29:33;;;;;;;;;;;18.80;84.30;;;19.05;47.68;98235.00;5065604;27;113651;-84
2023/05/15 09:32:07;;;;;;;;;;;18.80;84.40;;;19.08;47.54;98237.03;5069348;27;123980;-84
2023/05/15 09:34:35;;;;;;;;;;;18.80;84.30;;;19.13;47.54;98230.31;5069708;27;123905;-85
2023/05/15 09:37:04;;;;;;;;;;;18.80;84.40;;;19.18;47.70;98227.13;5065099;27;113575;-85
2023/05/15 09:39:31;;;;;;;;;;;18.80;84.50;;;19.26;47.41;98226.00;5067283;27;113470;-84
2023/05/15 09:42:11;;;;;;;;;;;18.80;84.50;;;19.31;46.91;98219.25;5061995;27;124358;-84
2023/05/15 09:44:41;;;;;;;;;;;18.90;84.10;;;19.30;46.43;98217.66;5062307;27;123872;-85
2023/05/15 09:47:11;;;;;;;;;;;18.90;83.00;;;19.34;46.52;98216.53;5056522;27;115374;-88
2023/05/15 09:49:37;;;;;;;;;;;19.00;83.40;;;19.42;46.39;98214.56;5057866;27;114115;-89
2023/05/15 09:52:08;;;;;;;;;;;19.00;83.60;;;19.50;46.13;98227.44;5050164;27;123935;-89
2023/05/15 09:54:35;;;;;;;;;;;19.10;83.30;;;19.52;45.96;98215.88;5059892;27;123956;-86
2023/05/15 09:57:09;;;;;;;;;;;19.10;83.50;;;19.53;44.99;98206.25;5059676;27;114537;-88
2023/05/15 09:59:35;;;;;;;;;;;19.10;81.80;;;19.55;45.13;98215.09;5052352;27;113791;-87
2023/05/15 10:02:02;;;;;;;;;;;19.10;81.70;;;19.60;45.41;98197.91;5048692;27;123670;-86
2023/05/15 10:04:34;;;;;;;;;;;19.20;81.50;;;19.67;45.35;98200.81;5052657;27;122545;-85
2023/05/15 10:07:00;;;;;;;;;;;19.20;81.80;;;19.70;45.52;98216.06;5050693;27;113591;-88
2023/05/15 10:09:30;;;;;;;;;;;19.30;82.00;;;19.71;45.68;98203.66;5061767;27;113837;-85
2023/05/15 10:11:57;;;;;;;;;;;19.30;82.20;;;19.71;45.27;98204.44;5050492;27;124356;-86
2023/05/15 10:14:28;;;;;;;;;;;19.30;82.10;;;19.73;45.20;98204.06;5052298;27;124075;-85
2023/05/15 10:16:57;;;;;;;;;;;19.40;81.60;;;19.70;45.06;98193.63;5057199;27;114586;-85
2023/05/15 10:19:24;;;;;;;;;;;19.40;80.80;;;19.72;45.03;98205.25;5049940;27;114118;-85
2023/05/15 10:21:51;;;;;;;;;;;19.40;81.10;;;19.77;44.92;98190.88;5052395;27;125898;-87
2023/05/15 10:24:18;;;;;;;;;;;19.40;81.20;;;19.82;44.72;98188.50;5058013;27;123996;-86
2023/05/15 10:26:46;;;;;;;;;;;19.50;80.90;;;19.85;44.13;98181.31;5061379;27;113984;-84
2023/05/15 10:29:16;;;;;;;;;;;19.50;80.10;;;19.88;44.32;98174.97;5055759;27;114002;-84
2023/05/15 10:31:45;;;;;;;;;;;19.60;80.40;;;19.94;44.14;98172.59;5044049;27;123465;-83
2023/05/15 10:34:11;;;;;;;;;;;19.60;80.20;;;19.99;43.96;98169.41;5063306;27;124710;-86
2023/05/15 10:36:38;;;;;;;;;;;19.60;80.00;;;20.02;44.22;98160.22;5064091;27;115434;-84
2023/05/15 10:39:05;;;;;;;;;;;19.60;80.00;;;20.09;43.51;98157.44;5066093;27;114697;-86
2023/05/15 10:41:39;;;;;;;;;;;19.70;79.00;;;20.10;43.06;98163.88;5051888;27;124264;-84
2023/05/15 10:44:08;;;;;;;;;;;19.70;78.50;;;20.15;43.44;98164.31;5058511;27;125329;-84
2023/05/15 10:46:35;;;;;;;;;;;19.80;79.00;;;20.19;42.06;98167.13;5070339;27;114888;-88
2023/05/15 10:49:01;;;;;;;;;;;19.80;76.70;;;20.20;40.81;98163.94;5064801;27;114257;-86
2023/05/15 10:51:30;;;;;;;;;;;19.80;74.90;;;20.23;40.24;98151.09;5053254;27;124752;-86
2023/05/15 10:53:59;;;;;;;;;;;19.80;73.80;;;20.28;39.91;98159.16;5056068;27;123204;-85
2023/05/15 10:56:28;;;;;;;;;;;19.90;73.30;;;20.34;39.71;98145.53;5049669;27;113648;-87
2023/05/15 10:58:55;;;;;;;;;;;19.90;73.00;;;20.38;40.48;98152.00;5060590;27;113666;-82
2023/05/15 11:01:32;;;;;;;;;;;20.00;73.60;;;20.42;40.14;98141.59;5054476;27;125648;-84
2023/05/15 11:04:10;;;;;;;;;;;20.00;73.90;;;20.43;40.22;98134.78;5040761;27;124400;-83
2023/05/15 11:06:39;;;;;;;;;;;20.10;73.50;;;20.52;40.61;98143.63;5057389;27;113807;-85
2023/05/15 11:09:20;;;;;;;;;;;20.10;74.40;;;20.57;40.53;98143.28;5050180;27;113753;-84
2023/05/15 11:11:56;;;;;;;;;;;20.20;74.30;;;20.58;39.69;98142.09;5049309;27;124269;-85
2023/05/15 11:14:26;;;;;;;;;;;20.20;73.00;;;20.67;40.01;98148.13;5055415;27;124763;-86
2023/05/15 11:16:56;;;;;;;;;;;20.30;73.40;;;20.72;39.30;98144.13;5066138;27;114823;-87